Time;durP1;ratioP1;P1;durP2;ratioP2;P2;SDS_P1;SDS_P2;PMS_P1;PMS_P2;Temp;Humidity;BMP_temperature;BMP_pressure;BME280_temperature;BME280_humidity;BME280_pressure;Samples;Min_cycle;Max_cycle;Signal;HPM_P1;HPM_P2
2021/10/17 00:01:20;;;;;;;;;;;;;;;4.90;70.45;99689.16;4888757;29;19931;-76
2021/10/17 00:03:46;;;;;;;;;;;;;;;4.88;71.00;99688.25;4891421;29;19930;-76
2021/10/17 00:06:11;;;;;;;;;;;;;;;4.87;70.89;99686.53;4873530;29;19923;-75
2021/10/17 00:08:37;;;;;;;;;;;;;;;4.83;70.79;99690.78;4888200;29;19931;-76
2021/10/17 00:11:06;;;;;;;;;;;;;;;4.81;70.59;99686.47;4887831;29;19930;-76
2021/10/17 00:13:31;;;;;;;;;;;;;;;4.80;70.20;99693.31;4871589;29;19923;-77
2021/10/17 00:15:58;;;;;;;;;;;;;;;4.79;70.81;99691.59;4870685;29;20041;-76
2021/10/17 00:18:23;;;;;;;;;;;;;;;4.77;71.03;99687.28;4855347;29;20049;-77
2021/10/17 00:20:49;;;;;;;;;;;;;;;4.77;70.75;99689.84;4871860;29;19931;-76
2021/10/17 00:23:15;;;;;;;;;;;;;;;4.76;70.74;99686.41;4885312;29;19924;-77
2021/10/17 00:25:40;;;;;;;;;;;;;;;4.51;70.75;99646.56;4871186;29;19958;-77
2021/10/17 00:28:06;;;;;;;;;;;;;;;4.78;70.94;99696.75;4871886;29;19927;-76
2021/10/17 00:30:42;;;;;;;;;;;;;;;4.75;71.04;99694.13;4870702;29;19924;-76
2021/10/17 00:33:08;;;;;;;;;;;;;;;4.76;70.48;99696.72;4885882;29;20474;-77
2021/10/17 00:35:35;;;;;;;;;;;;;;;4.73;70.60;99695.81;4886024;29;20276;-77
2021/10/17 00:38:00;;;;;;;;;;;;;;;4.72;71.37;99691.50;4886507;29;20414;-75
2021/10/17 00:40:26;;;;;;;;;;;;;;;4.72;70.38;99691.50;4887606;29;19924;-77
2021/10/17 00:42:52;;;;;;;;;;;;;;;4.72;70.93;99697.53;4871172;29;19928;-76
2021/10/17 00:45:21;;;;;;;;;;;;;;;4.68;70.56;99696.59;4893956;29;19952;-77
2021/10/17 00:47:46;;;;;;;;;;;;;;;4.67;70.89;99699.19;4858271;29;19923;-77
2021/10/17 00:50:12;;;;;;;;;;;;;;;4.66;70.84;99698.28;4885533;29;19966;-77
2021/10/17 00:52:38;;;;;;;;;;;;;;;4.66;71.14;99692.28;4870187;29;20018;-76
2021/10/17 00:55:05;;;;;;;;;;;;;;;4.63;71.33;99695.72;4869354;29;19990;-77
2021/10/17 00:57:31;;;;;;;;;;;;;;;4.64;71.22;99691.41;4874079;29;19987;-77
2021/10/17 00:59:57;;;;;;;;;;;;;;;4.65;71.28;99685.41;4873753;29;21061;-77
2021/10/17 01:02:22;;;;;;;;;;;;;;;4.60;71.32;99692.19;4890432;29;19945;-77
2021/10/17 01:04:48;;;;;;;;;;;;;;;4.62;71.71;99690.50;4892894;29;19939;-79
2021/10/17 01:07:13;;;;;;;;;;;;;;;4.59;71.28;99691.34;4889455;29;19924;-76
2021/10/17 01:09:39;;;;;;;;;;;;;;;4.56;70.80;99687.84;4838247;29;20422;-77
2021/10/17 01:12:08;;;;;;;;;;;;;;;4.55;71.61;99691.25;4869134;29;20018;-77
2021/10/17 01:14:34;;;;;;;;;;;;;;;4.53;71.50;99684.38;4885329;29;20010;-76
2021/10/17 01:17:00;;;;;;;;;;;;;;;4.53;70.92;99691.25;4885016;29;19923;-77
2021/10/17 01:19:26;;;;;;;;;;;;;;;4.52;71.83;99692.94;4885074;29;19923;-76
2021/10/17 01:22:02;;;;;;;;;;;;;;;4.52;71.27;99698.09;4884842;29;19930;-75
2021/10/17 01:24:27;;;;;;;;;;;;;;;4.55;71.22;99691.25;4873340;29;19930;-77
2021/10/17 01:26:53;;;;;;;;;;;;;;;4.55;71.67;99693.84;4880125;29;19916;-78
2021/10/17 01:29:19;;;;;;;;;;;;;;;4.51;70.91;99691.25;4892703;29;19932;-75
2021/10/17 01:31:46;;;;;;;;;;;;;;;4.49;71.65;99692.94;4885480;29;19923;-76
2021/10/17 01:34:12;;;;;;;;;;;;;;;4.48;71.26;99698.03;4870191;29;19932;-78
2021/10/17 01:36:38;;;;;;;;;;;;;;;4.43;71.31;99692.84;4868320;29;19923;-78
2021/10/17 01:39:05;;;;;;;;;;;;;;;4.42;71.23;99693.69;4868359;29;19924;-76
2021/10/17 01:41:30;;;;;;;;;;;;;;;4.43;71.80;99690.25;4870227;29;19924;-76
2021/10/17 01:44:01;;;;;;;;;;;;;;;4.42;71.56;99688.53;4884619;29;20045;-77
2021/10/17 01:46:27;;;;;;;;;;;;;;;4.41;71.40;99685.94;4853381;29;20022;-77
2021/10/17 01:48:53;;;;;;;;;;;;;;;4.39;71.32;99688.47;4869602;29;20030;-77
2021/10/17 01:51:19;;;;;;;;;;;;;;;4.38;71.54;99681.59;4868252;29;19927;-77
2021/10/17 01:53:45;;;;;;;;;;;;;;;4.37;71.58;99679.84;4867990;29;20026;-75
2021/10/17 01:56:12;;;;;;;;;;;;;;;4.37;71.23;99685.00;4884745;29;19951;-76
2021/10/17 01:58:38;;;;;;;;;;;;;;;4.37;71.73;99679.84;4852052;29;19974;-77
2021/10/17 02:01:04;;;;;;;;;;;;;;;4.36;71.27;99678.13;4885648;29;19930;-77
2021/10/17 02:03:30;;;;;;;;;;;;;;;4.36;71.24;99681.56;4852554;29;19931;-77
2021/10/17 02:05:56;;;;;;;;;;;;;;;4.37;71.52;99677.28;4869997;29;19923;-78
2021/10/17 02:08:22;;;;;;;;;;;;;;;4.35;72.17;99677.28;4872728;29;19931;-76
2021/10/17 02:10:48;;;;;;;;;;;;;;;4.35;71.56;99679.84;4868828;29;19935;-78
2021/10/17 02:13:13;;;;;;;;;;;;;;;4.35;72.03;99673.81;4869346;29;19929;-76
2021/10/17 02:15:39;;;;;;;;;;;;;;;4.32;71.31;99673.75;4884525;29;20031;-76
2021/10/17 02:18:05;;;;;;;;;;;;;;;4.30;71.57;99665.19;4868481;29;20066;-77
2021/10/17 02:20:40;;;;;;;;;;;;;;;4.31;71.35;99664.31;4868654;29;20012;-77
2021/10/17 02:23:06;;;;;;;;;;;;;;;4.30;71.39;99668.59;4867770;29;20448;-76
2021/10/17 02:25:33;;;;;;;;;;;;;;;4.31;71.87;99664.31;4869404;29;20384;-78
2021/10/17 02:27:59;;;;;;;;;;;;;;;4.28;71.68;99665.13;4885162;29;19928;-77
2021/10/17 02:30:26;;;;;;;;;;;;;;;4.29;71.83;99658.28;4886315;29;20022;-76
2021/10/17 02:33:03;;;;;;;;;;;;;;;4.29;71.93;99647.97;4884615;29;20255;-77
2021/10/17 02:35:31;;;;;;;;;;;;;;;4.29;71.90;99655.72;4870120;29;20414;-76
2021/10/17 02:37:57;;;;;;;;;;;;;;;4.28;72.16;99654.81;4885673;29;20189;-76
2021/10/17 02:40:25;;;;;;;;;;;;;;;4.26;71.85;99656.50;4886485;29;19928;-77
2021/10/17 02:42:50;;;;;;;;;;;;;;;4.26;71.75;99653.09;4872649;29;19988;-77
2021/10/17 02:45:16;;;;;;;;;;;;;;;4.26;71.96;99663.38;4872083;29;20404;-77
2021/10/17 02:47:41;;;;;;;;;;;;;;;4.25;71.52;99653.94;4871742;29;20411;-76
2021/10/17 02:50:08;;;;;;;;;;;;;;;4.21;72.17;99653.88;4873529;29;20018;-77
2021/10/17 02:52:34;;;;;;;;;;;;;;;4.21;71.48;99651.31;4888730;29;20443;-79
2021/10/17 02:54:59;;;;;;;;;;;;;;;4.19;72.20;99645.25;4872433;29;19923;-75
2021/10/17 02:57:25;;;;;;;;;;;;;;;4.20;72.10;99641.84;4873288;29;19959;-78
2021/10/17 02:59:51;;;;;;;;;;;;;;;4.16;72.21;99646.94;4891076;29;20279;-76
2021/10/17 03:02:16;;;;;;;;;;;;;;;4.17;72.04;99636.66;4874439;29;19960;-78
2021/10/17 03:04:42;;;;;;;;;;;;;;;4.17;72.41;99636.66;4889112;29;20336;-75
2021/10/17 03:07:07;;;;;;;;;;;;;;;4.17;71.77;99639.22;4895932;29;20311;-76
2021/10/17 03:09:42;;;;;;;;;;;;;;;4.15;72.04;99629.75;4887570;29;19943;-77
2021/10/17 03:12:07;;;;;;;;;;;;;;;4.13;72.27;99632.28;4852728;29;20035;-76
2021/10/17 03:14:33;;;;;;;;;;;;;;;4.13;72.26;99640.00;4890465;29;19928;-77
2021/10/17 03:16:59;;;;;;;;;;;;;;;4.12;72.39;99642.56;4875684;29;19923;-77
2021/10/17 03:19:24;;;;;;;;;;;;;;;4.13;72.33;99639.16;4912777;29;20006;-75
2021/10/17 03:21:50;;;;;;;;;;;;;;;4.12;71.75;99640.00;4896928;29;19912;-76
2021/10/17 03:24:16;;;;;;;;;;;;;;;4.12;72.05;99640.84;4912296;29;19927;-78
2021/10/17 03:26:43;;;;;;;;;;;;;;;4.12;72.39;99635.69;4895785;29;19927;-76
2021/10/17 03:29:08;;;;;;;;;;;;;;;4.10;72.67;99632.25;4895449;29;19931;-76
2021/10/17 03:31:37;;;;;;;;;;;;;;;4.08;72.52;99628.81;4904441;29;19950;-75
2021/10/17 03:34:04;;;;;;;;;;;;;;;4.06;72.49;99628.75;4884980;29;19923;-75
2021/10/17 03:36:30;;;;;;;;;;;;;;;4.07;72.17;99627.06;4895189;29;19931;-76
2021/10/17 03:38:57;;;;;;;;;;;;;;;4.09;72.43;99627.06;4893475;29;21885;-76
2021/10/17 03:41:26;;;;;;;;;;;;;;;4.11;72.94;99635.69;4862556;29;19927;-77
2021/10/17 03:43:51;;;;;;;;;;;;;;;4.12;72.37;99640.84;4893006;29;19954;-75
2021/10/17 03:46:20;;;;;;;;;;;;;;;4.11;72.37;99641.69;4891949;29;19928;-77
2021/10/17 03:48:46;;;;;;;;;;;;;;;4.10;72.37;99637.38;4895416;29;19928;-76
2021/10/17 03:51:16;;;;;;;;;;;;;;;4.11;72.29;99633.97;4861003;29;19987;-75
2021/10/17 03:53:42;;;;;;;;;;;;;;;4.11;72.42;99636.53;4877329;29;19931;-76
2021/10/17 03:56:09;;;;;;;;;;;;;;;4.11;72.41;99639.13;4844981;29;19928;-75
2021/10/17 03:58:35;;;;;;;;;;;;;;;4.13;72.42;99634.84;4860794;29;19930;-78
2021/10/17 04:01:00;;;;;;;;;;;;;;;4.14;72.45;99631.44;4867192;29;19960;-77
2021/10/17 04:03:28;;;;;;;;;;;;;;;4.14;72.49;99636.59;4852908;29;20016;-76
2021/10/17 04:05:54;;;;;;;;;;;;;;;4.15;72.75;99629.75;4854616;29;19931;-77
2021/10/17 04:08:20;;;;;;;;;;;;;;;4.18;72.65;99633.22;4870180;29;19928;-78
2021/10/17 04:10:46;;;;;;;;;;;;;;;4.27;72.16;99632.50;4878402;29;19983;-75
2021/10/17 04:13:12;;;;;;;;;;;;;;;4.45;72.33;99636.16;4874481;29;19973;-77
2021/10/17 04:15:38;;;;;;;;;;;;;;;4.66;71.66;99631.28;4858182;29;19929;-77
2021/10/17 04:18:07;;;;;;;;;;;;;;;4.91;72.03;99626.41;4862442;29;20428;-76
2021/10/17 04:20:33;;;;;;;;;;;;;;;5.24;72.49;99625.06;4856130;29;19924;-77
2021/10/17 04:22:59;;;;;;;;;;;;;;;5.65;71.95;99623.69;4867416;29;19935;-76
2021/10/17 04:25:27;;;;;;;;;;;;;;;6.00;71.27;99620.56;4873844;29;19924;-76
2021/10/17 04:27:53;;;;;;;;;;;;;;;6.44;71.48;99623.41;4855343;29;20057;-78
2021/10/17 04:30:19;;;;;;;;;;;;;;;6.86;71.15;99616.69;4853395;29;19923;-77
2021/10/17 04:32:44;;;;;;;;;;;;;;;7.24;70.43;99618.50;4872612;29;19931;-77
2021/10/17 04:35:10;;;;;;;;;;;;;;;7.71;70.10;99613.38;4858824;29;20329;-76
2021/10/17 04:37:37;;;;;;;;;;;;;;;8.23;69.90;99619.34;4854598;29;19978;-77
2021/10/17 04:40:05;;;;;;;;;;;;;;;8.70;69.22;99620.09;4870235;29;19924;-78
2021/10/17 04:42:34;;;;;;;;;;;;;;;9.10;68.30;99619.06;4857352;29;19931;-76
2021/10/17 04:45:00;;;;;;;;;;;;;;;9.35;68.00;99611.97;4853505;29;19928;-77
2021/10/17 04:47:25;;;;;;;;;;;;;;;9.13;67.35;99614.69;4841533;29;19928;-77
2021/10/17 04:49:51;;;;;;;;;;;;;;;8.92;67.34;99612.22;4856240;29;20012;-77
2021/10/17 04:52:16;;;;;;;;;;;;;;;8.83;67.04;99615.72;4883303;29;20332;-77
2021/10/17 04:54:42;;;;;;;;;;;;;;;8.98;66.74;99614.78;4871301;29;19924;-76
2021/10/17 04:57:08;;;;;;;;;;;;;;;9.26;66.39;99614.63;4872558;29;19966;-76
2021/10/17 04:59:36;;;;;;;;;;;;;;;9.54;66.39;99604.91;4871877;29;19977;-77
2021/10/17 05:02:07;;;;;;;;;;;;;;;9.77;65.20;99604.72;4870612;29;19930;-79
2021/10/17 05:04:36;;;;;;;;;;;;;;;9.47;65.39;99605.81;4864044;29;20022;-76
2021/10/17 05:07:02;;;;;;;;;;;;;;;9.09;65.21;99601.75;4880843;29;19924;-78
2021/10/17 05:09:28;;;;;;;;;;;;;;;8.71;65.18;99601.94;4907780;29;19950;-75
2021/10/17 05:11:56;;;;;;;;;;;;;;;8.47;65.73;99607.19;4903148;29;19923;-78
2021/10/17 05:14:23;;;;;;;;;;;;;;;8.21;65.17;99605.53;4894085;29;20042;-76
2021/10/17 05:16:49;;;;;;;;;;;;;;;8.04;65.75;99605.56;4870024;29;20336;-76
2021/10/17 05:19:15;;;;;;;;;;;;;;;7.94;65.45;99612.47;4888665;29;19924;-77
2021/10/17 05:21:43;;;;;;;;;;;;;;;7.73;65.63;99614.22;4888259;29;19924;-76
2021/10/17 05:24:09;;;;;;;;;;;;;;;7.71;65.81;99623.72;4871149;29;20026;-78
2021/10/17 05:26:35;;;;;;;;;;;;;;;7.76;66.05;99626.31;4886285;29;20351;-79
2021/10/17 05:29:23;;;;;;;;;;;;;;;7.96;65.81;99618.53;4870430;29;20619;-81
2021/10/17 05:31:51;;;;;;;;;;;;;;;9.10;65.71;99611.25;4871417;29;20479;-78
2021/10/17 05:34:17;;;;;;;;;;;;;;;10.08;65.28;99609.63;4870895;29;20006;-78
2021/10/17 05:36:42;;;;;;;;;;;;;;;10.82;63.58;99570.63;4871375;29;19923;-78
2021/10/17 05:39:10;;;;;;;;;;;;;;;11.28;62.85;99608.19;4886520;29;19932;-79
2021/10/17 05:41:38;;;;;;;;;;;;;;;11.34;62.28;99605.50;4884993;29;20042;-78
2021/10/17 05:44:04;;;;;;;;;;;;;;;11.57;62.06;99604.28;4870765;29;20451;-77
2021/10/17 05:46:30;;;;;;;;;;;;;;;11.48;61.02;99612.25;4887113;29;19928;-78
2021/10/17 05:49:06;;;;;;;;;;;;;;;11.42;61.07;99614.06;4870844;29;20006;-77
2021/10/17 05:51:32;;;;;;;;;;;;;;;11.97;60.97;99607.94;4873217;29;19947;-76
2021/10/17 05:54:00;;;;;;;;;;;;;;;12.60;59.72;99606.81;4871898;29;19928;-78
2021/10/17 05:56:26;;;;;;;;;;;;;;;12.81;59.21;99602.88;4874957;29;19979;-76
2021/10/17 05:58:54;;;;;;;;;;;;;;;12.72;58.63;99604.81;4857882;29;19924;-77
2021/10/17 06:01:23;;;;;;;;;;;;;;;12.63;58.18;99606.75;4871914;29;19929;-76
2021/10/17 06:04:22;;;;;;;;;;;;;;;12.40;56.98;99603.72;4887184;29;20015;-79
2021/10/17 06:07:04;;;;;;;;;;;;;;;12.45;58.00;99601.91;4871182;29;19930;-77
2021/10/17 06:09:38;;;;;;;;;;;;;;;12.83;56.88;99599.38;4854794;29;19928;-78
2021/10/17 06:12:11;;;;;;;;;;;;;;;13.45;56.97;99598.03;4876396;29;20030;-76
2021/10/17 06:14:39;;;;;;;;;;;;;;;14.00;56.09;99601.88;4890116;29;19924;-78
2021/10/17 06:17:07;;;;;;;;;;;;;;;14.10;55.22;99592.03;4889575;29;20418;-80
2021/10/17 06:19:37;;;;;;;;;;;;;;;14.48;55.21;99596.22;4873904;29;19930;-77
2021/10/17 06:22:03;;;;;;;;;;;;;;;14.83;54.07;99600.50;4874706;29;19955;-77
2021/10/17 06:24:53;;;;;;;;;;;;;;;15.12;53.39;99595.25;4875130;29;20431;-79
2021/10/17 06:27:36;;;;;;;;;;;;;;;15.40;53.49;99589.16;4891906;29;19971;-80
2021/10/17 06:30:12;;;;;;;;;;;;;;;15.33;52.26;99591.13;4858107;29;19928;-77
2021/10/17 06:32:55;;;;;;;;;;;;;;;15.61;51.18;99593.69;4892263;29;19927;-78
2021/10/17 06:35:48;;;;;;;;;;;;;;;15.62;51.78;99592.78;4879130;29;19927;-78
2021/10/17 06:38:23;;;;;;;;;;;;;;;15.61;50.26;99598.09;4878868;29;19924;-77
2021/10/17 06:44:18;;;;;;;;;;;;;;;15.91;50.15;99611.13;4851207;29;19924;-77
2021/10/17 06:46:52;;;;;;;;;;;;;;;15.84;49.53;99618.31;4853333;29;19924;-78
2021/10/17 06:49:24;;;;;;;;;;;;;;;15.54;49.54;99602.69;4870268;29;19932;-79
2021/10/17 06:52:02;;;;;;;;;;;;;;;15.52;48.82;99607.13;4830664;29;19935;-78
2021/10/17 06:54:33;;;;;;;;;;;;;;;15.08;48.92;99606.78;4856330;29;19923;-76
2021/10/17 06:56:58;;;;;;;;;;;;;;;14.57;49.19;99604.69;4868578;29;19935;-76
2021/10/17 06:59:26;;;;;;;;;;;;;;;14.38;49.34;99600.88;4870062;29;20277;-78
2021/10/17 07:02:07;;;;;;;;;;;;;;;15.60;50.83;99602.47;4869467;29;19944;-77
2021/10/17 07:04:36;;;;;;;;;;;;;;;16.60;47.33;99601.72;4868132;29;19924;-79
2021/10/17 07:07:02;;;;;;;;;;;;;;;17.74;47.62;99591.16;4853323;29;19974;-80
2021/10/17 07:09:45;;;;;;;;;;;;;;;18.23;43.87;99592.66;4853657;29;19979;-79
2021/10/17 07:12:23;;;;;;;;;;;;;;;18.69;44.29;99593.22;4863555;29;19987;-75
2021/10/17 07:14:56;;;;;;;;;;;;;;;19.96;44.07;99583.69;4853289;29;19924;-79
2021/10/17 07:17:37;;;;;;;;;;;;;;;20.55;39.97;99588.53;4870701;29;19959;-78
2021/10/17 07:20:04;;;;;;;;;;;;;;;20.56;40.61;99591.09;4867708;29;19924;-76
2021/10/17 07:22:39;;;;;;;;;;;;;;;21.46;40.40;99596.75;4833370;29;19929;-76
2021/10/17 07:25:25;;;;;;;;;;;;;;;21.88;38.91;99591.72;4855443;29;19924;-78
2021/10/17 07:28:00;;;;;;;;;;;;;;;22.33;38.87;99591.69;4857049;29;20380;-79
2021/10/17 07:30:48;;;;;;;;;;;;;;;22.36;37.75;99595.97;4853555;29;20531;-77
2021/10/17 07:33:15;;;;;;;;;;;;;;;23.34;37.33;99587.22;4857080;29;19924;-77
2021/10/17 07:35:48;;;;;;;;;;;;;;;24.20;35.82;99573.50;4843115;29;19930;-77
2021/10/17 07:38:14;;;;;;;;;;;;;;;24.21;35.19;99577.84;4843136;29;19931;-76
2021/10/17 07:40:40;;;;;;;;;;;;;;;24.02;34.89;99570.28;4857650;29;19928;-78
2021/10/17 07:43:06;;;;;;;;;;;;;;;24.25;35.60;99570.50;4855747;29;20405;-77
2021/10/17 07:45:38;;;;;;;;;;;;;;;24.00;33.00;99577.50;4848381;29;20011;-77
2021/10/17 07:48:11;;;;;;;;;;;;;;;22.41;34.21;99570.88;4857896;29;20073;-77
2021/10/17 07:50:45;;;;;;;;;;;;;;;21.92;35.96;99577.38;4844055;29;20389;-77
2021/10/17 07:53:38;;;;;;;;;;;;;;;22.85;35.35;99574.34;4869815;29;20405;-78
2021/10/17 07:56:03;;;;;;;;;;;;;;;24.08;33.09;99576.16;4884592;29;19924;-78
2021/10/17 07:58:44;;;;;;;;;;;;;;;;;;;;;
2021/10/17 08:01:16;;;;;;;;;;;;;;;25.50;30.88;99566.03;4866668;29;20301;-78
2021/10/17 08:04:02;;;;;;;;;;;;;;;24.30;31.96;99573.69;4871031;29;20281;-78
2021/10/17 08:06:46;;;;;;;;;;;;;;;22.11;33.39;99587.69;4883281;29;20018;-78
2021/10/17 08:09:14;;;;;;;;;;;;;;;20.44;34.13;99603.16;4885187;29;19944;-78
2021/10/17 08:11:43;;;;;;;;;;;;;;;19.05;36.21;99600.34;4867978;29;19967;-78
2021/10/17 08:14:24;;;;;;;;;;;;;;;18.31;37.74;99604.56;4878116;29;19946;-78
2021/10/17 08:16:54;;;;;;;;;;;;;;;17.98;38.28;99607.75;4853562;29;19923;-79
2021/10/17 08:19:41;;;;;;;;;;;;;;;18.75;38.22;99602.63;4871272;29;20007;-79
2021/10/17 08:22:09;;;;;;;;;;;;;;;19.47;37.32;99593.09;4870853;29;19939;-75
2021/10/17 08:24:35;;;;;;;;;;;;;;;19.97;37.08;99601.25;4871166;29;19931;-78
2021/10/17 08:27:04;;;;;;;;;;;;;;;20.52;36.31;99599.28;4872021;29;19931;-79
2021/10/17 08:29:46;;;;;;;;;;;;;;;21.60;34.64;99582.72;4891073;29;19928;-77
2021/10/17 08:32:52;;;;;;;;;;;;;;;22.64;32.78;99591.59;4875100;29;19930;-78
2021/10/17 08:35:22;;;;;;;;;;;;;;;22.37;32.44;99597.66;4890492;29;19924;-78
2021/10/17 08:37:54;;;;;;;;;;;;;;;21.07;33.18;99593.63;4890790;29;19988;-78
2021/10/17 08:40:39;;;;;;;;;;;;;;;20.32;33.83;99599.38;4871993;29;19978;-77
2021/10/17 08:43:44;;;;;;;;;;;;;;;19.45;35.90;99597.59;4873298;29;20317;-80
2021/10/17 08:46:32;;;;;;;;;;;;;;;20.49;35.58;99594.13;4876137;29;19924;-80
2021/10/17 08:49:05;;;;;;;;;;;;;;;21.57;34.13;99590.84;4879922;29;19988;-77
2021/10/17 08:51:37;;;;;;;;;;;;;;;22.13;33.23;99584.97;4889384;29;19920;-77
2021/10/17 08:54:06;;;;;;;;;;;;;;;22.66;31.95;99581.75;4889274;29;19972;-75
2021/10/17 08:56:40;;;;;;;;;;;;;;;22.17;32.42;99582.97;4878282;29;19928;-76
2021/10/17 08:59:30;;;;;;;;;;;;;;;21.55;32.88;99600.66;4890856;29;19927;-78
2021/10/17 09:02:11;;;;;;;;;;;;;;;21.37;33.72;99586.72;4874148;29;19923;-79
2021/10/17 09:04:40;;;;;;;;;;;;;;;20.14;34.50;99595.06;4877307;29;20367;-78
2021/10/17 09:07:23;;;;;;;;;;;;;;;19.99;34.85;99596.72;4872819;29;20376;-78
2021/10/17 09:10:18;;;;;;;;;;;;;;;18.99;34.76;99594.53;4863633;29;20409;-79
2021/10/17 09:12:56;;;;;;;;;;;;;;;17.82;35.69;99611.88;4873152;29;19931;-79
2021/10/17 09:15:42;;;;;;;;;;;;;;;16.58;36.94;99614.91;4862578;29;19995;-79
2021/10/17 09:18:10;;;;;;;;;;;;;;;15.63;39.08;99615.50;4891413;29;19924;-78
2021/10/17 09:20:51;;;;;;;;;;;;;;;15.32;39.19;99619.13;4873659;29;19970;-77
2021/10/17 09:23:25;;;;;;;;;;;;;;;15.11;39.68;99623.25;4875571;29;19928;-76
2021/10/17 09:25:55;;;;;;;;;;;;;;;14.94;39.92;99626.38;4877180;29;19924;-78
2021/10/17 09:28:29;;;;;;;;;;;;;;;14.82;40.09;99635.44;4865940;29;20304;-76
2021/10/17 09:31:12;;;;;;;;;;;;;;;14.47;40.10;99634.66;4878343;29;19988;-78
2021/10/17 09:33:56;;;;;;;;;;;;;;;13.93;40.63;99626.47;4879678;29;19923;-75
2021/10/17 09:36:27;;;;;;;;;;;;;;;13.07;41.47;99603.22;4877444;29;19928;-78
2021/10/17 09:39:33;;;;;;;;;;;;;;;12.77;42.41;99642.13;4851994;29;20338;-78
2021/10/17 09:42:21;;;;;;;;;;;;;;;12.33;43.11;99645.59;4879799;29;19920;-77
2021/10/17 09:44:58;;;;;;;;;;;;;;;11.96;43.89;99651.44;4863551;29;19969;-78
2021/10/17 09:47:39;;;;;;;;;;;;;;;11.83;45.03;99644.69;4861960;29;19924;-78
2021/10/17 09:50:18;;;;;;;;;;;;;;;11.64;44.73;99642.38;4887957;29;20317;-79
2021/10/17 09:53:00;;;;;;;;;;;;;;;11.43;45.58;99648.81;4896327;29;19950;-76
2021/10/17 09:55:27;;;;;;;;;;;;;;;11.47;45.56;99650.47;4907594;29;19932;-80
2021/10/17 09:58:04;;;;;;;;;;;;;;;;;;;;;
2021/10/17 10:01:11;;;;;;;;;;;;;;;11.35;45.86;99648.91;4883996;29;19916;-79
2021/10/17 10:03:37;;;;;;;;;;;;;;;11.10;45.34;99644.06;4871921;29;20304;-78
2021/10/17 10:06:06;;;;;;;;;;;;;;;10.99;46.77;99646.78;4864132;29;19943;-78
2021/10/17 10:08:32;;;;;;;;;;;;;;;10.99;46.72;99640.72;4863504;29;20453;-78
2021/10/17 10:10:58;;;;;;;;;;;;;;;10.85;46.55;99649.56;4887911;29;19924;-79
2021/10/17 10:13:24;;;;;;;;;;;;;;;10.70;47.01;99653.22;4887071;29;19930;-75
2021/10/17 10:15:51;;;;;;;;;;;;;;;10.45;46.79;99652.63;4888257;29;19953;-77
2021/10/17 10:18:18;;;;;;;;;;;;;;;10.24;47.86;99645.88;4890040;29;20014;-77
2021/10/17 10:20:44;;;;;;;;;;;;;;;10.08;48.48;99645.16;4877301;29;19955;-77
2021/10/17 10:23:12;;;;;;;;;;;;;;;10.13;49.01;99653.78;4872887;29;19927;-75
2021/10/17 10:25:38;;;;;;;;;;;;;;;10.18;49.44;99649.41;4886070;29;19924;-77
2021/10/17 10:28:09;;;;;;;;;;;;;;;10.20;49.34;99645.06;4855798;29;20563;-76
2021/10/17 10:30:38;;;;;;;;;;;;;;;10.22;49.00;99642.41;4878230;29;19924;-80
2021/10/17 10:33:07;;;;;;;;;;;;;;;10.38;49.24;99646.63;4886293;29;19931;-78
2021/10/17 10:35:36;;;;;;;;;;;;;;;10.46;48.60;99641.34;4876256;29;19924;-79
2021/10/17 10:38:02;;;;;;;;;;;;;;;10.49;49.40;99645.66;4883555;29;19916;-77
2021/10/17 10:40:28;;;;;;;;;;;;;;;10.33;49.57;99650.13;4906491;29;19939;-73
2021/10/17 10:42:54;;;;;;;;;;;;;;;10.31;49.33;99644.06;4901228;29;20047;-76
2021/10/17 10:45:24;;;;;;;;;;;;;;;10.22;49.63;99638.09;4858337;29;20015;-77
2021/10/17 10:48:05;;;;;;;;;;;;;;;10.12;49.53;99644.25;4887857;29;19923;-74
2021/10/17 10:50:36;;;;;;;;;;;;;;;10.03;50.23;99645.19;4879974;29;19928;-77
2021/10/17 10:53:01;;;;;;;;;;;;;;;9.93;50.49;99641.81;4893294;29;19938;-79
2021/10/17 10:55:42;;;;;;;;;;;;;;;9.94;50.77;99648.75;4888719;29;19924;-77
2021/10/17 10:58:25;;;;;;;;;;;;;;;9.99;50.61;99650.44;4885724;29;19924;-77
2021/10/17 11:00:52;;;;;;;;;;;;;;;9.95;50.89;99639.19;4862238;29;19988;-77
2021/10/17 11:03:19;;;;;;;;;;;;;;;9.94;50.80;99635.75;4892349;29;19927;-74
2021/10/17 11:06:03;;;;;;;;;;;;;;;9.98;51.23;99649.56;4875193;29;19923;-76
2021/10/17 11:08:29;;;;;;;;;;;;;;;10.00;50.83;99644.38;4892953;29;19935;-78
2021/10/17 11:10:55;;;;;;;;;;;;;;;9.98;51.03;99636.56;4895068;29;19948;-77
2021/10/17 11:13:27;;;;;;;;;;;;;;;9.87;51.01;99628.88;4895335;29;19924;-79
2021/10/17 11:15:54;;;;;;;;;;;;;;;9.86;51.16;99626.31;4878354;29;19930;-76
2021/10/17 11:18:31;;;;;;;;;;;;;;;9.95;51.63;99631.41;4894115;29;19923;-76
2021/10/17 11:20:57;;;;;;;;;;;;;;;10.07;51.66;99627.81;4895442;29;19924;-75
2021/10/17 11:23:24;;;;;;;;;;;;;;;10.22;51.28;99622.50;4876635;29;19924;-78
2021/10/17 11:25:53;;;;;;;;;;;;;;;10.29;51.34;99618.09;4878319;29;20273;-77
2021/10/17 11:28:19;;;;;;;;;;;;;;;10.34;51.28;99624.09;4875072;29;20416;-76
2021/10/17 11:30:46;;;;;;;;;;;;;;;10.39;50.91;99618.88;4895834;29;19924;-74
2021/10/17 11:33:22;;;;;;;;;;;;;;;10.45;51.41;99612.75;4874930;29;19924;-76
2021/10/17 11:35:54;;;;;;;;;;;;;;;10.52;51.28;99617.00;4890988;29;19931;-74
2021/10/17 11:38:20;;;;;;;;;;;;;;;10.66;50.68;99612.47;4891034;29;20439;-76
2021/10/17 11:40:46;;;;;;;;;;;;;;;10.72;50.86;99611.53;4880563;29;19923;-78
2021/10/17 11:43:11;;;;;;;;;;;;;;;10.82;51.23;99607.06;4896796;29;19931;-78
2021/10/17 11:45:38;;;;;;;;;;;;;;;10.84;49.97;99606.19;4895377;29;19951;-79
2021/10/17 11:48:05;;;;;;;;;;;;;;;10.63;50.48;99601.25;4879583;29;19948;-82
2021/10/17 11:50:32;;;;;;;;;;;;;;;10.42;50.88;99602.38;4891493;29;19924;-80
2021/10/17 11:53:02;;;;;;;;;;;;;;;10.07;51.37;99568.91;4892103;29;19935;-76
2021/10/17 11:55:28;;;;;;;;;;;;;;;10.15;51.57;99600.03;4890471;29;20424;-77
2021/10/17 11:57:54;;;;;;;;;;;;;;;10.10;51.31;99600.09;4874347;29;20015;-81
2021/10/17 12:00:23;;;;;;;;;;;;;;;10.10;51.67;99596.59;4858015;29;19959;-78
2021/10/17 12:02:50;;;;;;;;;;;;;;;10.03;51.97;99589.75;4888795;29;19931;-81
2021/10/17 12:05:16;;;;;;;;;;;;;;;9.94;51.86;99586.38;4890003;29;19928;-79
2021/10/17 12:07:43;;;;;;;;;;;;;;;9.83;52.19;99577.78;4888003;29;19931;-77
2021/10/17 12:10:09;;;;;;;;;;;;;;;9.79;52.45;99581.31;4864205;29;19928;-81
2021/10/17 12:12:38;;;;;;;;;;;;;;;9.66;52.45;99580.56;4891283;29;20395;-75
2021/10/17 12:15:04;;;;;;;;;;;;;;;9.61;52.39;99590.13;4887603;29;19924;-79
2021/10/17 12:17:54;;;;;;;;;;;;;;;9.56;52.64;99589.28;4887968;29;19923;-75
2021/10/17 12:20:19;;;;;;;;;;;;;;;9.53;52.88;99590.19;4889711;29;19935;-75
2021/10/17 12:22:46;;;;;;;;;;;;;;;9.58;52.83;99595.34;4872673;29;19923;-78
2021/10/17 12:25:22;;;;;;;;;;;;;;;9.57;53.02;99586.69;4880677;29;19923;-76
2021/10/17 12:27:49;;;;;;;;;;;;;;;9.51;53.17;99586.75;4877587;29;19990;-78
2021/10/17 12:30:21;;;;;;;;;;;;;;;9.49;52.97;99586.75;4895218;29;19931;-76
2021/10/17 12:32:50;;;;;;;;;;;;;;;9.47;53.02;99591.13;4907375;29;19923;-75
2021/10/17 12:35:18;;;;;;;;;;;;;;;9.45;53.49;99589.38;4892946;29;19924;-73
2021/10/17 12:37:44;;;;;;;;;;;;;;;9.47;53.29;99593.72;4898566;29;19948;-77
2021/10/17 12:40:10;;;;;;;;;;;;;;;9.45;53.22;99589.38;4880324;29;19924;-74
2021/10/17 12:42:49;;;;;;;;;;;;;;;9.41;53.74;99592.88;4882999;29;19923;-75
2021/10/17 12:45:16;;;;;;;;;;;;;;;9.39;53.73;99586.81;4878956;29;19977;-75
2021/10/17 12:47:49;;;;;;;;;;;;;;;9.44;54.15;99582.47;4879181;29;19932;-72
2021/10/17 12:50:15;;;;;;;;;;;;;;;9.49;54.21;99575.50;4866429;29;20410;-79
2021/10/17 12:52:41;;;;;;;;;;;;;;;9.54;53.86;99571.13;4890823;29;19931;-75
2021/10/17 12:55:11;;;;;;;;;;;;;;;9.61;53.76;99580.59;4868902;29;19928;-76
2021/10/17 12:57:38;;;;;;;;;;;;;;;9.59;53.44;99568.50;4885781;29;19907;-78
2021/10/17 13:00:04;;;;;;;;;;;;;;;9.57;53.68;99576.31;4876421;29;19923;-80
2021/10/17 13:02:39;;;;;;;;;;;;;;;9.54;54.10;99565.06;4893026;29;19927;-74
2021/10/17 13:05:13;;;;;;;;;;;;;;;9.49;53.75;99562.50;4896758;29;19931;-72
2021/10/17 13:07:38;;;;;;;;;;;;;;;9.43;54.23;99565.16;4877304;29;19932;-75
2021/10/17 13:10:06;;;;;;;;;;;;;;;9.37;54.40;99560.88;4893423;29;19928;-79
2021/10/17 13:12:38;;;;;;;;;;;;;;;9.09;54.18;99518.69;4892872;29;19946;-77
2021/10/17 13:15:16;;;;;;;;;;;;;;;9.31;54.26;99560.91;4874500;29;19942;-75